Morning Compass — C6ZY8 — position and weather

sailwx.info

Track history (hours):
 
Tides and Currents Weather Stations Pressure Air Temp Water Temp Dewpoint Dewpoint Depression Visibility Wind Speed Wind Dir Waves Ship Positions

Morning Compass

Last reported at 2017-Oct-18 18:38 UTC. Time now 2017-Oct-19 09:30 UTC.
Position N 22°06' E 114°48'.

Length 200 m; draft 9.8 m.

Type: Cargo ship. MMSI: 311072400.

Date/timePositionNaut miles runAvg speedWind from/ knotsBaromVisibWave heightAir tempDewpointWater temp
2017-Oct-18 18:38N 22°06' E 114°48'215.7
2017-Oct-18 18:30N 22°06' E 114°46'816.0
2017-Oct-18 17:59N 22°05' E 114°37'816.2
2017-Oct-18 17:29N 22°05' E 114°28'10 0.8
2017-Oct-18 04:37N 22°08' E 114°17'2 9.5
2017-Oct-18 04:26N 22°08' E 114°19'511.1
2017-Oct-18 04:01N 22°07' E 114°24'510.5
2017-Oct-18 03:30N 22°07' E 114°30'9 2.6
2017-Oct-18 00:03N 22°01' E 114°37'0 0.5
2017-Oct-17 23:32N 22°01' E 114°37'310.5
2017-Oct-17 23:15N 21°58' E 114°36'513.1
2017-Oct-17 22:51N 21°53' E 114°35'  
2017-Oct-14 02:58N 01°15' E 103°44'2 3.4
2017-Oct-14 02:25N 01°14' E 103°42'1434.6
2017-Oct-14 02:00N 01°13' E 103°57'611.6
2017-Oct-14 01:30N 01°11' E 103°51'4 8.0
2017-Oct-14 01:00N 01°13' E 103°48'510.0
2017-Oct-14 00:30N 01°17' E 103°45'1 1.2
2017-Oct-13 23:56N 01°17' E 103°45'0 0.0
2017-Oct-13 23:29N 01°17' E 103°45'0 0.0
2017-Oct-13 22:59N 01°17' E 103°45'0 0.0
2017-Oct-13 22:29N 01°17' E 103°45'0 0.0
2017-Oct-13 21:59N 01°17' E 103°45'0 0.0
2017-Oct-13 21:29N 01°17' E 103°45'0 0.0
2017-Oct-13 20:59N 01°17' E 103°45'0 0.0
2017-Oct-13 20:29N 01°17' E 103°45'0 0.0
2017-Oct-13 19:59N 01°17' E 103°45'0 0.0
2017-Oct-13 19:29N 01°17' E 103°45'0 0.0
2017-Oct-13 18:59N 01°17' E 103°45'0 0.0
2017-Oct-13 18:29N 01°17' E 103°45'0 0.0
2017-Oct-13 17:59N 01°17' E 103°45'0 0.0
2017-Oct-13 17:29N 01°17' E 103°45'0 0.0
2017-Oct-13 16:59N 01°17' E 103°45'0 0.0
2017-Oct-13 16:29N 01°17' E 103°45'0 0.0
2017-Oct-13 15:59N 01°17' E 103°45'0 0.2
2017-Oct-13 15:30N 01°17' E 103°45'1 2.9
2017-Oct-13 15:01N 01°16' E 103°46'510.1
2017-Oct-13 14:30N 01°13' E 103°42'510.8
2017-Oct-13 14:00N 01°12' E 103°36'4 8.2
2017-Oct-13 13:31N 01°11' E 103°33'4 8.1
2017-Oct-13 13:00N 01°09' E 103°29'5 9.7
2017-Oct-13 12:29N 01°12' E 103°24'  
Track history (hours):
 
Tides and Currents Weather Stations Pressure Air Temp Water Temp Dewpoint Dewpoint Depression Visibility Wind Speed Wind Dir Waves Ship Positions

Morning Compass

Last reported at 2017-Oct-18 18:38 UTC. Time now 2017-Oct-19 09:30 UTC.
Position N 22°06' E 114°48'.

Length 200 m; draft 9.8 m.

Type: Cargo ship. MMSI: 311072400.

Date/timePositionNaut miles runAvg speedWind from/ knotsBaromVisibWave heightAir tempDewpointWater temp
2017-Oct-18 18:38N 22°06' E 114°48'215.7
2017-Oct-18 18:30N 22°06' E 114°46'816.0
2017-Oct-18 17:59N 22°05' E 114°37'816.2
2017-Oct-18 17:29N 22°05' E 114°28'10 0.8
2017-Oct-18 04:37N 22°08' E 114°17'2 9.5
2017-Oct-18 04:26N 22°08' E 114°19'511.1
2017-Oct-18 04:01N 22°07' E 114°24'510.5
2017-Oct-18 03:30N 22°07' E 114°30'9 2.6
2017-Oct-18 00:03N 22°01' E 114°37'0 0.5
2017-Oct-17 23:32N 22°01' E 114°37'310.5
2017-Oct-17 23:15N 21°58' E 114°36'513.1
2017-Oct-17 22:51N 21°53' E 114°35'  
2017-Oct-14 02:58N 01°15' E 103°44'2 3.4
2017-Oct-14 02:25N 01°14' E 103°42'1434.6
2017-Oct-14 02:00N 01°13' E 103°57'611.6
2017-Oct-14 01:30N 01°11' E 103°51'4 8.0
2017-Oct-14 01:00N 01°13' E 103°48'510.0
2017-Oct-14 00:30N 01°17' E 103°45'1 1.2
2017-Oct-13 23:56N 01°17' E 103°45'0 0.0
2017-Oct-13 23:29N 01°17' E 103°45'0 0.0
2017-Oct-13 22:59N 01°17' E 103°45'0 0.0
2017-Oct-13 22:29N 01°17' E 103°45'0 0.0
2017-Oct-13 21:59N 01°17' E 103°45'0 0.0
2017-Oct-13 21:29N 01°17' E 103°45'0 0.0
2017-Oct-13 20:59N 01°17' E 103°45'0 0.0
2017-Oct-13 20:29N 01°17' E 103°45'0 0.0
2017-Oct-13 19:59N 01°17' E 103°45'0 0.0
2017-Oct-13 19:29N 01°17' E 103°45'0 0.0
2017-Oct-13 18:59N 01°17' E 103°45'0 0.0
2017-Oct-13 18:29N 01°17' E 103°45'0 0.0
2017-Oct-13 17:59N 01°17' E 103°45'0 0.0
2017-Oct-13 17:29N 01°17' E 103°45'0 0.0
2017-Oct-13 16:59N 01°17' E 103°45'0 0.0
2017-Oct-13 16:29N 01°17' E 103°45'0 0.0
2017-Oct-13 15:59N 01°17' E 103°45'0 0.2
2017-Oct-13 15:30N 01°17' E 103°45'1 2.9
2017-Oct-13 15:01N 01°16' E 103°46'510.1
2017-Oct-13 14:30N 01°13' E 103°42'510.8
2017-Oct-13 14:00N 01°12' E 103°36'4 8.2
2017-Oct-13 13:31N 01°11' E 103°33'4 8.1
2017-Oct-13 13:00N 01°09' E 103°29'5 9.7
2017-Oct-13 12:29N 01°12' E 103°24'  

Dump ship's entire track history